AIRPORT METAR

METAR FOR LESB
ADDS - METARS form results

(2149 UTC 06 December 2022)
Data provider http://aviationweather.gov/metar/data/
 
METAR text: LESB 062130Z AUTO 35002KT CAVOK 13/12 Q1015
Conditions at: LESB (MALLORCA SON BON, ES) observed 2130 UTC 06 December 2022
Temperature: 13.0°C (55°F)
Dewpoint: 12.0°C (54°F) [RH = 94%]
Pressure (altimeter): 29.97 inches Hg (1015.0 mb)
Winds: from the N (350 degrees) at 2 MPH (2 knots; 1.0 m/s)
Visibility: 6 or more miles (10+ km)
Ceiling: ceiling and visibility are OK
Clouds: unknown
Weather: no significant weather observed at this time

METAR text: LESB 062100Z AUTO 34003KT 9999 BKN020/// 13/12 Q1015
Conditions at: LESB (MALLORCA SON BON, ES) observed 2100 UTC 06 December 2022
Temperature: 13.0°C (55°F)
Dewpoint: 12.0°C (54°F) [RH = 94%]
Pressure (altimeter): 29.97 inches Hg (1015.0 mb)
Winds: from the NNW (340 degrees) at 3 MPH (3 knots; 1.5 m/s)
Visibility: 6 or more miles (10+ km)
Ceiling: 2000 feet AGL
Clouds: broken clouds at 2000 feet AGL
Weather: no significant weather observed at this time

AIRPORT MAP

 RUNWAY INFORMATION
Runway 06 Runway length 3281 ft Runway width 72 ft
Runway elevation 0 ft Runway displaced threshold 0 ft Runway heading 49
Runway 24 Runway length 3281 ft Runway width 72 ft
Runway elevation 0 ft Runway displaced threshold 0 ft Runway heading 229

 AIRPORT FREQUENCIES
Type APP Name PALMA APP Frequency 119.4 MHZ
Type OPS Name PALMA OPS Frequency 130.25 MHZ
Type TWR Name PALMA TWR Frequency 118.3 MHZ

 AIRPORT NEAR NAVIGATION AIDS



© 2022 - Royal Sky Service, All Right Reserved.